Temp: 20.7°C   Baro: 1012.2mb
  Wind: 0.9mph   Dir: WSW (238°)
  Rain: 0.0mm (0.0mm/hr)
  Solar: 563W/m2  Hum: 63%
 
Bath Spa Weather Station Historical Data
Daily Summary for February 15, 2020 Units:  Metric    English   Both
Daily Weekly Monthly Yearly Custom
  High: Low: Average:
Temperature: 17.8 °C 15.8 °C 17 °C
Dew Point: 16.8 °C 14.8 °C 15.9 °C
Humidity: 95% 92% 94%
Wind Speed: 10.9km/h 0km/h 2.7km/h
Wind Gust: 20.9km/h - -
Wind- - East
Pressure: 1015.1 hPa 1012.8 hPa -
Precipitation: 4.83 mm    
Historical Graphs
 
 
Tabular Data for February 15, 2020
Time Temperature Dew Point Pressure Wind Wind Speed Wind Gust Humidity Rainfall Rate (Hourly) solar
00:04 17.7 °C 16.4 °C 1014.8 hPa Calm     92% 0 mm 0 W/m2
00:09 17.7 °C 16.4 °C 1014.8 hPa Calm     92% 0 mm 0 W/m2
00:14 17.7 °C 16.3 °C 1014.8 hPa Calm     92% 0 mm 0 W/m2
00:19 17.7 °C 16.4 °C 1014.8 hPa Calm     92% 0 mm 0 W/m2
00:24 17.7 °C 16.3 °C 1014.8 hPa Calm     92% 0 mm 0 W/m2
00:29 17.6 °C 16.3 °C 1014.8 hPa Calm     92% 0 mm 0 W/m2
00:34 17.7 °C 16.5 °C 1014.8 hPa Calm     92.8% 0 mm 0 W/m2
00:39 17.7 °C 16.6 °C 1014.4 hPa Calm     93% 0 mm 0 W/m2
00:44 17.6 °C 16.5 °C 1014.4 hPa Calm     93% 0 mm 0 W/m2
00:49 17.6 °C 16.5 °C 1014.4 hPa Calm     93% 0 mm 0 W/m2
00:54 17.6 °C 16.5 °C 1014.4 hPa Calm     93% 0 mm 0 W/m2
00:59 17.6 °C 16.4 °C 1014.4 hPa Calm     93% 0 mm 0 W/m2
01:04 17.5 °C 16.4 °C 1014.8 hPa Calm     93% 0 mm 0 W/m2
01:09 17.5 °C 16.4 °C 1014.4 hPa Calm     93% 0 mm 0 W/m2
01:14 17.5 °C 16.4 °C 1014.4 hPa NNE 0.3 km/h 1.6 km/h 93% 0 mm 0 W/m2
01:19 17.5 °C 16.4 °C 1014.4 hPa NNE 1.3 km/h 4.8 km/h 93% 0 mm 0 W/m2
01:24 17.4 °C 16.3 °C 1014.4 hPa NNE 0.3 km/h 4.8 km/h 93% 0 mm 0 W/m2
01:29 17.4 °C 16.3 °C 1014.4 hPa Calm     93% 0 mm 0 W/m2
01:34 17.5 °C 16.4 °C 1014.4 hPa Calm     93% 0 mm 0 W/m2
01:39 17.5 °C 16.4 °C 1014.4 hPa Calm     93% 0 mm 0 W/m2
01:44 17.6 °C 16.4 °C 1014.4 hPa Calm   1.6 km/h 93% 0 mm 0 W/m2
01:49 17.6 °C 16.5 °C 1014.4 hPa Calm     93% 0 mm 0 W/m2
01:54 17.6 °C 16.5 °C 1014.4 hPa Calm     93% 0 mm 0 W/m2
01:59 17.6 °C 16.5 °C 1014.4 hPa Calm     93% 0 mm 0 W/m2
02:04 17.6 °C 16.5 °C 1014.4 hPa Calm     93% 0 mm 0 W/m2
02:09 17.6 °C 16.5 °C 1014.4 hPa Calm     93% 0 mm 0 W/m2
02:14 17.6 °C 16.5 °C 1014.4 hPa Calm     93% 0 mm 0 W/m2
02:19 17.6 °C 16.5 °C 1014.4 hPa Calm     93% 0 mm 0 W/m2
02:24 17.6 °C 16.5 °C 1014.4 hPa Calm     93% 0 mm 0 W/m2
02:29 17.6 °C 16.5 °C 1014.4 hPa Calm     93% 0 mm 0 W/m2
02:34 17.7 °C 16.6 °C 1014.4 hPa Calm     93% 0 mm 0 W/m2
02:39 17.7 °C 16.6 °C 1014.4 hPa Calm     93% 0 mm 0 W/m2
02:44 17.7 °C 16.6 °C 1014.4 hPa Calm     93% 0 mm 0 W/m2
02:49 17.7 °C 16.6 °C 1014.4 hPa NNE 0.8 km/h 3.2 km/h 93% 0 mm 0 W/m2
02:54 17.7 °C 16.6 °C 1014.4 hPa Calm   1.6 km/h 93% 0 mm 0 W/m2
02:59 17.8 °C 16.7 °C 1014.4 hPa NNE 0.6 km/h 3.2 km/h 93.4% 0 mm 0 W/m2
03:04 17.8 °C 16.7 °C 1014.1 hPa East 4.5 km/h 8 km/h 93% 0 mm 0 W/m2
03:09 17.7 °C 16.7 °C 1014.1 hPa East 2.4 km/h 6.4 km/h 93% 0 mm 0 W/m2
03:14 17.8 °C 16.7 °C 1014.1 hPa ESE 0.6 km/h 4.8 km/h 93.2% 0 mm 0 W/m2
03:19 17.8 °C 16.8 °C 1014.1 hPa NE 4.3 km/h 9.7 km/h 93.8% 0 mm 0 W/m2
03:24 17.8 °C 16.8 °C 1014.1 hPa ENE 3.1 km/h 8 km/h 93.6% 0 mm 0 W/m2
03:29 17.8 °C 16.7 °C 1014.1 hPa ENE 4.7 km/h 8 km/h 93.3% 0 mm 0 W/m2
03:34 17.8 °C 16.7 °C 1014.1 hPa NE 3.7 km/h 11.3 km/h 93% 0 mm 0 W/m2
03:39 17.8 °C 16.7 °C 1014.1 hPa East 2.9 km/h 8 km/h 93% 0 mm 0 W/m2
03:44 17.8 °C 16.7 °C 1014.1 hPa East 2.3 km/h 8 km/h 93% 0 mm 0 W/m2
03:49 17.8 °C 16.7 °C 1014.1 hPa East 3.1 km/h 8 km/h 93% 0 mm 0 W/m2
03:54 17.8 °C 16.7 °C 1014.1 hPa East 5 km/h 11.3 km/h 93% 0 mm 0 W/m2
03:59 17.7 °C 16.6 °C 1014.1 hPa ENE 4.2 km/h 12.9 km/h 93% 0 mm 0 W/m2
04:04 17.7 °C 16.6 °C 1014.1 hPa East 3.9 km/h 11.3 km/h 93% 0 mm 0 W/m2
04:09 17.7 °C 16.6 °C 1013.8 hPa East 5.1 km/h 11.3 km/h 93% 0 mm 0 W/m2
04:14 17.7 °C 16.6 °C 1014.1 hPa East 4.5 km/h 14.5 km/h 93% 0 mm 0 W/m2
04:19 17.7 °C 16.6 °C 1014.1 hPa ENE 1.9 km/h 6.4 km/h 93% 0 mm 0 W/m2
04:24 17.7 °C 16.6 °C 1014.1 hPa ENE 5.3 km/h 12.9 km/h 93% 0 mm 0 W/m2
04:29 17.7 °C 16.6 °C 1014.1 hPa ENE 6 km/h 12.9 km/h 93% 0 mm 0 W/m2
04:34 17.7 °C 16.6 °C 1014.1 hPa ENE 6.9 km/h 12.9 km/h 93% 0 mm 0 W/m2
04:39 17.6 °C 16.5 °C 1014.1 hPa East 3.1 km/h 14.5 km/h 93% 0 mm 0 W/m2
04:44 17.6 °C 16.5 °C 1014.1 hPa ENE 5.3 km/h 12.9 km/h 93% 0 mm 0 W/m2
04:49 17.6 °C 16.5 °C 1014.1 hPa ENE 5.3 km/h 12.9 km/h 93% 0 mm 0 W/m2
04:54 17.5 °C 16.4 °C 1014.1 hPa ENE 5.1 km/h 14.5 km/h 93% 0 mm 0 W/m2
04:59 17.4 °C 16.3 °C 1014.1 hPa ENE 3.9 km/h 11.3 km/h 93% 0 mm 0 W/m2
05:04 17.4 °C 16.3 °C 1013.8 hPa East 4.3 km/h 11.3 km/h 93% 0 mm 0 W/m2
05:09 17.4 °C 16.3 °C 1013.8 hPa East 2.7 km/h 8 km/h 93% 0 mm 0 W/m2
05:14 17.4 °C 16.3 °C 1013.8 hPa ESE 2.6 km/h 9.7 km/h 93% 0 mm 0 W/m2
05:19 17.4 °C 16.3 °C 1013.8 hPa ENE 2.7 km/h 6.4 km/h 93% 0.25 mm 0 W/m2
05:23 17.3 °C 16.2 °C 1013.8 hPa ENE 3.2 km/h 9.7 km/h 93% 0.25 mm 0 W/m2
05:29 17.3 °C 16.2 °C 1013.8 hPa East 4.7 km/h 16.1 km/h 93% 0.25 mm 0 W/m2
05:34 17.2 °C 16.1 °C 1014.1 hPa East 2.7 km/h 16.1 km/h 93% 0.25 mm 0 W/m2
05:39 17.2 °C 16.1 °C 1014.1 hPa East 4.5 km/h 12.9 km/h 93% 0.25 mm 0 W/m2
05:44 17.1 °C 16 °C 1014.1 hPa ENE 3.4 km/h 11.3 km/h 93% 0.51 mm 0 W/m2
05:49 16.9 °C 15.8 °C 1014.1 hPa ENE 4.7 km/h 12.9 km/h 93% 0.51 mm 0 W/m2
05:54 16.9 °C 15.8 °C 1014.1 hPa East 3.9 km/h 16.1 km/h 93% 0.51 mm 0 W/m2
05:59 16.8 °C 15.7 °C 1014.1 hPa ESE 4.7 km/h 12.9 km/h 93% 0.51 mm 0 W/m2
06:04 16.8 °C 15.7 °C 1014.1 hPa ESE 4 km/h 11.3 km/h 93% 0.51 mm 0 W/m2
06:09 16.8 °C 15.7 °C 1014.1 hPa ESE 9.3 km/h 14.5 km/h 93.2% 0.51 mm 0 W/m2
06:14 16.8 °C 15.8 °C 1014.1 hPa SE 5.1 km/h 12.9 km/h 94% 0.51 mm 0 W/m2
06:19 16.8 °C 15.8 °C 1014.1 hPa East 3.9 km/h 9.7 km/h 94% 0.51 mm 0 W/m2
06:24 16.7 °C 15.7 °C 1014.1 hPa SE 3.7 km/h 8 km/h 94% 0.25 mm 0 W/m2
06:29 16.7 °C 15.7 °C 1014.1 hPa East 4.8 km/h 12.9 km/h 94% 0.25 mm 5 W/m2
06:34 16.7 °C 15.7 °C 1014.1 hPa East 3.2 km/h 8 km/h 94% 0.25 mm 5 W/m2
06:39 16.7 °C 15.7 °C 1014.1 hPa ESE 4.3 km/h 11.3 km/h 94% 0.25 mm 0 W/m2
06:44 16.7 °C 15.7 °C 1014.1 hPa ESE 3.9 km/h 8 km/h 94% 0.25 mm 0 W/m2
06:49 16.7 °C 15.7 °C 1014.1 hPa East 4.5 km/h 9.7 km/h 94% 0 mm 5 W/m2
06:54 16.7 °C 15.7 °C 1014.1 hPa ENE 4.7 km/h 12.9 km/h 94% 0.25 mm 7 W/m2
06:59 16.6 °C 15.6 °C 1014.4 hPa ENE 4 km/h 9.7 km/h 94% 0.25 mm 11 W/m2
07:04 16.6 °C 15.6 °C 1014.4 hPa East 3.1 km/h 9.7 km/h 94% 0.25 mm 14 W/m2
07:09 16.6 °C 15.6 °C 1014.4 hPa ESE 3.9 km/h 11.3 km/h 94% 0.25 mm 18 W/m2
07:14 16.6 °C 15.6 °C 1014.4 hPa ESE 2.3 km/h 8 km/h 94% 0.25 mm 18 W/m2
07:19 16.6 °C 15.6 °C 1014.4 hPa ESE 3.2 km/h 11.3 km/h 94% 0.25 mm 18 W/m2
07:24 16.6 °C 15.6 °C 1014.4 hPa ENE 6.3 km/h 12.9 km/h 94% 0.25 mm 21 W/m2
07:29 16.6 °C 15.6 °C 1014.4 hPa ENE 7.1 km/h 12.9 km/h 94% 0.25 mm 21 W/m2
07:34 16.4 °C 15.4 °C 1014.4 hPa East 5.3 km/h 14.5 km/h 94% 0.25 mm 21 W/m2
07:39 16.4 °C 15.4 °C 1014.4 hPa East 4.3 km/h 14.5 km/h 94% 0.25 mm 21 W/m2
07:44 16.4 °C 15.4 °C 1014.4 hPa East 5.8 km/h 11.3 km/h 94% 0.25 mm 26 W/m2
07:49 16.4 °C 15.4 °C 1014.4 hPa ESE 4.8 km/h 12.9 km/h 94% 0.25 mm 26 W/m2
07:54 16.3 °C 15.3 °C 1014.4 hPa East 7.4 km/h 14.5 km/h 94% 0.25 mm 26 W/m2
07:59 16.3 °C 15.3 °C 1014.4 hPa ENE 5.8 km/h 17.7 km/h 94% 0 mm 26 W/m2
08:04 16.3 °C 15.3 °C 1014.4 hPa East 6 km/h 12.9 km/h 94% 0 mm 26 W/m2
08:09 16.2 °C 15.2 °C 1014.4 hPa ENE 4 km/h 12.9 km/h 94% 0 mm 35 W/m2
08:14 16.2 °C 15.2 °C 1014.8 hPa East 4.7 km/h 12.9 km/h 94% 0 mm 44 W/m2
08:19 16.2 °C 15.2 °C 1014.8 hPa East 2.6 km/h 14.5 km/h 94% 0 mm 47 W/m2
08:24 16.2 °C 15.2 °C 1014.8 hPa East 5.5 km/h 14.5 km/h 94% 0 mm 47 W/m2
08:29 16.2 °C 15.2 °C 1014.8 hPa ENE 6.6 km/h 14.5 km/h 94% 0 mm 40 W/m2
08:34 16.2 °C 15.2 °C 1014.8 hPa East 5.1 km/h 12.9 km/h 94% 0 mm 37 W/m2
08:39 16.2 °C 15.2 °C 1014.8 hPa ESE 1.9 km/h 11.3 km/h 94% 0 mm 40 W/m2
08:44 16.2 °C 15.2 °C 1014.8 hPa East 3.4 km/h 14.5 km/h 94% 0 mm 39 W/m2
08:49 16.2 °C 15.2 °C 1014.8 hPa NE 7.2 km/h 16.1 km/h 94% 0 mm 28 W/m2
08:54 16.1 °C 15.1 °C 1014.8 hPa ENE 8 km/h 16.1 km/h 94% 0 mm 25 W/m2
08:58 16.1 °C 15.1 °C 1014.8 hPa ENE 4.8 km/h 16.1 km/h 94% 0 mm 26 W/m2
09:04 16.1 °C 15.1 °C 1014.8 hPa ENE 7.1 km/h 17.7 km/h 94% 0 mm 28 W/m2
09:09 16.1 °C 15.1 °C 1014.8 hPa East 9.8 km/h 14.5 km/h 94% 0 mm 33 W/m2
09:14 16 °C 15 °C 1014.8 hPa ENE 6.4 km/h 17.7 km/h 94% 0 mm 46 W/m2
09:19 16.1 °C 15.1 °C 1014.8 hPa ENE 7.7 km/h 17.7 km/h 94% 0 mm 46 W/m2
09:24 16.1 °C 15.1 °C 1014.8 hPa East 5.3 km/h 17.7 km/h 94% 0 mm 33 W/m2
09:29 16.1 °C 15.1 °C 1014.8 hPa ENE 6.3 km/h 11.3 km/h 94% 0 mm 35 W/m2
09:34 16.1 °C 15.1 °C 1014.8 hPa East 3.7 km/h 14.5 km/h 94% 0 mm 35 W/m2
09:39 16.1 °C 15.1 °C 1014.8 hPa NE 5.6 km/h 12.9 km/h 94% 0.25 mm 35 W/m2
09:44 16.1 °C 15.1 °C 1014.8 hPa ENE 3.5 km/h 9.7 km/h 94% 0.25 mm 42 W/m2
09:49 15.9 °C 14.9 °C 1015.1 hPa ENE 6.3 km/h 16.1 km/h 94% 0.25 mm 46 W/m2
09:54 15.9 °C 14.9 °C 1014.8 hPa ENE 10.3 km/h 17.7 km/h 94% 0.25 mm 54 W/m2
09:59 15.9 °C 14.9 °C 1015.1 hPa East 7.1 km/h 20.9 km/h 94% 0.25 mm 54 W/m2
10:04 15.9 °C 14.9 °C 1015.1 hPa ESE 4 km/h 12.9 km/h 94% 0.25 mm 49 W/m2
10:09 15.9 °C 14.9 °C 1015.1 hPa East 7.4 km/h 14.5 km/h 94% 0.25 mm 47 W/m2
10:14 15.9 °C 14.9 °C 1015.1 hPa NE 10.9 km/h 16.1 km/h 94% 0.25 mm 53 W/m2
10:19 15.9 °C 14.9 °C 1015.1 hPa NE 3.9 km/h 16.1 km/h 94% 0.25 mm 56 W/m2
10:24 15.9 °C 14.9 °C 1015.1 hPa East 5.8 km/h 11.3 km/h 94% 0.25 mm 58 W/m2
10:29 15.8 °C 14.8 °C 1015.1 hPa ENE 5.5 km/h 14.5 km/h 94% 0.25 mm 74 W/m2
10:34 15.8 °C 14.8 °C 1015.1 hPa ENE 6.6 km/h 12.9 km/h 94% 0.25 mm 91 W/m2
10:39 15.8 °C 14.8 °C 1015.1 hPa ENE 9.3 km/h 20.9 km/h 94% 0 mm 97 W/m2
10:44 15.8 °C 14.8 °C 1015.1 hPa East 5.5 km/h 14.5 km/h 94% 0 mm 90 W/m2
10:49 15.8 °C 14.8 °C 1015.1 hPa East 8 km/h 17.7 km/h 94% 0 mm 123 W/m2
10:54 15.8 °C 14.8 °C 1015.1 hPa East 8.9 km/h 17.7 km/h 94% 0 mm 141 W/m2
10:59 15.9 °C 14.9 °C 1015.1 hPa SE 3.4 km/h 11.3 km/h 94% 0 mm 141 W/m2
11:04 15.9 °C 14.9 °C 1015.1 hPa ESE 3.2 km/h 8 km/h 94% 0 mm 91 W/m2
11:09 15.9 °C 14.9 °C 1015.1 hPa ESE 5.1 km/h 14.5 km/h 94% 0 mm 105 W/m2
11:14 15.9 °C 14.9 °C 1015.1 hPa ESE 5.1 km/h 14.5 km/h 94% 0.25 mm 109 W/m2
11:19 15.9 °C 14.9 °C 1015.1 hPa ENE 3.4 km/h 9.7 km/h 94% 0.25 mm 86 W/m2
11:24 15.9 °C 14.9 °C 1015.1 hPa ESE 4.5 km/h 11.3 km/h 94% 0.25 mm 76 W/m2
11:29 15.9 °C 14.9 °C 1015.1 hPa ESE 4.3 km/h 12.9 km/h 94% 0.25 mm 79 W/m2
11:34 15.9 °C 14.9 °C 1015.1 hPa ESE 3.5 km/h 8 km/h 94% 0.25 mm 86 W/m2
11:39 16.1 °C 15.1 °C 1015.1 hPa ENE 6.6 km/h 14.5 km/h 94% 0.25 mm 97 W/m2
11:44 16 °C 15 °C 1015.1 hPa East 3.4 km/h 8 km/h 94% 0.25 mm 97 W/m2
11:49 16.1 °C 15.1 °C 1015.1 hPa East 8.5 km/h 14.5 km/h 94% 0.25 mm 97 W/m2
11:54 16.1 °C 15.1 °C 1015.1 hPa East 4.8 km/h 14.5 km/h 94% 0.25 mm 98 W/m2
11:59 16.1 °C 15.1 °C 1015.1 hPa ENE 4 km/h 14.5 km/h 94% 0.25 mm 100 W/m2
12:04 16.1 °C 15.1 °C 1015.1 hPa ENE 3.5 km/h 16.1 km/h 94% 0.25 mm 114 W/m2
12:09 16.1 °C 15.1 °C 1015.1 hPa East 3.1 km/h 12.9 km/h 94% 0.25 mm 116 W/m2
12:14 16.2 °C 15.2 °C 1015.1 hPa ENE 4 km/h 12.9 km/h 94% 0.25 mm 123 W/m2
12:19 16.2 °C 15.2 °C 1015.1 hPa ENE 5 km/h 11.3 km/h 94% 0 mm 104 W/m2
12:24 16.3 °C 15.3 °C 1015.1 hPa ENE 4 km/h 11.3 km/h 94% 0 mm 104 W/m2
12:29 16.3 °C 15.3 °C 1015.1 hPa NE 3.9 km/h 12.9 km/h 94% 0 mm 97 W/m2
12:34 16.3 °C 15.3 °C 1015.1 hPa ENE 4.3 km/h 11.3 km/h 94% 0 mm 114 W/m2
12:39 16.3 °C 15.3 °C 1015.1 hPa East 2.6 km/h 6.4 km/h 94% 0 mm 114 W/m2
12:44 16.4 °C 15.4 °C 1015.1 hPa ENE 3.7 km/h 11.3 km/h 94% 0 mm 113 W/m2
12:49 16.4 °C 15.4 °C 1015.1 hPa NE 4.5 km/h 9.7 km/h 94% 0 mm 113 W/m2
12:54 16.3 °C 15.3 °C 1015.1 hPa ENE 6.8 km/h 17.7 km/h 94% 0 mm 114 W/m2
12:59 16.4 °C 15.4 °C 1015.1 hPa ENE 3.2 km/h 9.7 km/h 94% 0 mm 111 W/m2
13:04 16.4 °C 15.4 °C 1015.1 hPa East 5 km/h 12.9 km/h 94% 0 mm 98 W/m2
13:09 16.4 °C 15.3 °C 1015.1 hPa ENE 3.7 km/h 11.3 km/h 93% 0 mm 97 W/m2
13:14 16.4 °C 15.3 °C 1015.1 hPa East 7.9 km/h 14.5 km/h 93% 0 mm 114 W/m2
13:19 16.4 °C 15.3 °C 1015.1 hPa East 8 km/h 14.5 km/h 93% 0 mm 123 W/m2
13:24 16.4 °C 15.3 °C 1015.1 hPa ESE 6.3 km/h 16.1 km/h 93% 0 mm 93 W/m2
13:29 16.4 °C 15.3 °C 1015.1 hPa East 5.6 km/h 16.1 km/h 93% 0 mm 83 W/m2
13:34 16.5 °C 15.4 °C 1015.1 hPa ENE 4.5 km/h 12.9 km/h 93% 0 mm 90 W/m2
13:39 16.6 °C 15.5 °C 1015.1 hPa ENE 4.3 km/h 12.9 km/h 93% 0 mm 104 W/m2
13:44 16.6 °C 15.5 °C 1015.1 hPa ENE 5.1 km/h 12.9 km/h 93% 0 mm 88 W/m2
13:49 16.6 °C 15.5 °C 1015.1 hPa ENE 3.5 km/h 14.5 km/h 93% 0 mm 81 W/m2
13:54 16.6 °C 15.5 °C 1015.1 hPa ENE 5.1 km/h 14.5 km/h 93% 0 mm 81 W/m2
13:59 16.6 °C 15.5 °C 1015.1 hPa East 7.6 km/h 12.9 km/h 93% 0 mm 77 W/m2
14:04 16.7 °C 15.6 °C 1015.1 hPa ESE 3.1 km/h 11.3 km/h 93% 0 mm 84 W/m2
14:09 16.7 °C 15.6 °C 1015.1 hPa East 5.3 km/h 14.5 km/h 93% 0 mm 90 W/m2
14:14 16.7 °C 15.4 °C 1015.1 hPa East 3.9 km/h 14.5 km/h 92% 0 mm 91 W/m2
14:19 16.7 °C 15.4 °C 1014.8 hPa East 4.5 km/h 12.9 km/h 92% 0 mm 107 W/m2
14:24 16.7 °C 15.4 °C 1014.8 hPa ESE 4 km/h 9.7 km/h 92% 0.25 mm 118 W/m2
14:29 16.8 °C 15.5 °C 1014.8 hPa East 1.9 km/h 8 km/h 92% 1.02 mm 109 W/m2
14:34 16.9 °C 15.7 °C 1014.8 hPa East 1.6 km/h 11.3 km/h 92.6% 1.27 mm 95 W/m2
14:39 16.8 °C 15.5 °C 1014.8 hPa East 2.7 km/h 11.3 km/h 92% 1.27 mm 83 W/m2
14:44 16.9 °C 15.6 °C 1014.8 hPa ENE 3.2 km/h 6.4 km/h 92.2% 1.27 mm 104 W/m2
14:49 16.9 °C 15.6 °C 1014.8 hPa ENE 0.8 km/h 6.4 km/h 92.2% 1.27 mm 91 W/m2
14:53 16.8 °C 15.7 °C 1014.8 hPa East 2.7 km/h 9.7 km/h 92.8% 1.27 mm 70 W/m2
14:59 16.8 °C 15.6 °C 1014.8 hPa East 3.4 km/h 8 km/h 92.2% 1.27 mm 72 W/m2
15:04 16.8 °C 15.5 °C 1014.8 hPa NE 3.2 km/h 8 km/h 92% 1.27 mm 70 W/m2
15:09 16.9 °C 15.8 °C 1014.8 hPa ENE 2.1 km/h 9.7 km/h 93% 1.27 mm 67 W/m2
15:14 16.9 °C 15.8 °C 1014.8 hPa ENE 4.2 km/h 11.3 km/h 93% 1.27 mm 74 W/m2
15:19 16.9 °C 15.8 °C 1014.8 hPa ENE 3.5 km/h 8 km/h 93% 1.27 mm 91 W/m2
15:24 16.9 °C 15.8 °C 1014.4 hPa East 3.4 km/h 9.7 km/h 93% 1.27 mm 93 W/m2
15:29 16.9 °C 15.8 °C 1014.4 hPa East 4 km/h 8 km/h 93% 0.76 mm 91 W/m2
15:39 16.9 °C 15.8 °C 1014.4 hPa ENE 4 km/h 8 km/h 93% 0 mm 90 W/m2
15:44 17 °C 15.9 °C 1014.4 hPa ESE 0.6 km/h 9.7 km/h 93% 0.25 mm 93 W/m2
15:49 17.1 °C 16 °C 1014.4 hPa ENE 2.6 km/h 6.4 km/h 93% 0.25 mm 79 W/m2
15:53 17.1 °C 15.9 °C 1014.4 hPa East 3.5 km/h 6.4 km/h 93% 0.25 mm 70 W/m2
15:59 17 °C 15.9 °C 1014.4 hPa East 2.3 km/h 6.4 km/h 93% 0.25 mm 74 W/m2
16:04 17.1 °C 16 °C 1014.4 hPa ENE 2.4 km/h 8 km/h 93% 0.25 mm 70 W/m2
16:09 17.1 °C 16 °C 1014.4 hPa East 4.5 km/h 12.9 km/h 93% 0.25 mm 67 W/m2
16:14 17.1 °C 15.9 °C 1014.1 hPa ENE 4.5 km/h 12.9 km/h 93% 0.25 mm 60 W/m2
16:19 17.1 °C 16 °C 1014.1 hPa ENE 3.5 km/h 8 km/h 93% 0.25 mm 60 W/m2
16:24 17.1 °C 15.9 °C 1014.1 hPa ENE 6 km/h 11.3 km/h 93% 0.25 mm 54 W/m2
16:29 17.1 °C 16 °C 1014.1 hPa ENE 1.3 km/h 8 km/h 93% 0.25 mm 54 W/m2
16:34 17.1 °C 15.9 °C 1014.1 hPa NE 5.1 km/h 9.7 km/h 93% 0.25 mm 79 W/m2
16:39 17 °C 15.9 °C 1014.1 hPa ENE 2.9 km/h 11.3 km/h 93% 0.25 mm 76 W/m2
16:44 17.1 °C 15.9 °C 1014.1 hPa NE 4.3 km/h 11.3 km/h 93% 0.25 mm 65 W/m2
16:49 17.1 °C 16 °C 1014.1 hPa NNE 1.8 km/h 6.4 km/h 93% 0 mm 67 W/m2
16:51 17.1 °C 16 °C 1014.1 hPa ENE 5.6 km/h 11.3 km/h 93% 0 mm 65 W/m2
16:59 17.1 °C 16 °C 1013.8 hPa ENE 1.9 km/h 4.8 km/h 93% 0.25 mm 72 W/m2
17:04 17.2 °C 16.1 °C 1013.8 hPa ENE 1.9 km/h 8 km/h 93% 0.25 mm 60 W/m2
17:09 17.1 °C 16 °C 1013.8 hPa East 2.3 km/h 6.4 km/h 93% 0.51 mm 53 W/m2
17:14 17.1 °C 16 °C 1013.8 hPa ESE 2.1 km/h 6.4 km/h 93% 0.51 mm 62 W/m2
17:19 17.1 °C 16 °C 1013.8 hPa ESE 1.8 km/h 4.8 km/h 93% 0.51 mm 63 W/m2
17:24 17.1 °C 16 °C 1013.8 hPa ESE 1 km/h 4.8 km/h 93% 0.76 mm 69 W/m2
17:29 17.2 °C 16.1 °C 1013.8 hPa ESE 0.3 km/h 3.2 km/h 93% 1.02 mm 70 W/m2
17:34 17.2 °C 16.1 °C 1013.8 hPa ESE 2.3 km/h 4.8 km/h 93% 1.02 mm 63 W/m2
17:39 17.2 °C 16.1 °C 1013.8 hPa ESE 2.4 km/h 6.4 km/h 93% 1.02 mm 54 W/m2
17:44 17.1 °C 16 °C 1013.8 hPa ESE 1.3 km/h 6.4 km/h 93% 1.02 mm 49 W/m2
17:49 17.2 °C 16.1 °C 1013.8 hPa Calm   1.6 km/h 93% 1.02 mm 35 W/m2
17:54 17.2 °C 16.2 °C 1013.8 hPa Calm   1.6 km/h 93% 1.02 mm 62 W/m2
17:59 17.3 °C 16.2 °C 1013.4 hPa ESE 1.6 km/h 4.8 km/h 93% 1.52 mm 74 W/m2
18:04 17.3 °C 16.2 °C 1013.4 hPa Calm   3.2 km/h 93% 1.78 mm 70 W/m2
18:09 17.2 °C 16.1 °C 1013.4 hPa ESE 0.6 km/h 3.2 km/h 93% 2.03 mm 49 W/m2
18:14 17.2 °C 16.1 °C 1013.4 hPa Calm   4.8 km/h 93% 1.78 mm 40 W/m2
18:19 17.2 °C 16.1 °C 1013.4 hPa ESE 1.9 km/h 4.8 km/h 93% 1.52 mm 35 W/m2
18:24 17.2 °C 16.1 °C 1013.4 hPa ESE 1.6 km/h 4.8 km/h 93% 1.52 mm 37 W/m2
18:29 17.2 °C 16.1 °C 1013.4 hPa ESE 1 km/h 4.8 km/h 93% 1.52 mm 42 W/m2
18:34 17.2 °C 16.1 °C 1013.4 hPa ESE 1.9 km/h 3.2 km/h 93% 1.27 mm 46 W/m2
18:39 17.3 °C 16.2 °C 1013.4 hPa ESE 0.3 km/h 3.2 km/h 93% 1.27 mm 46 W/m2
18:44 17.3 °C 16.2 °C 1013.4 hPa NW 0.3 km/h 3.2 km/h 93% 1.52 mm 37 W/m2
18:49 17.3 °C 16.2 °C 1013.4 hPa NW 0.3 km/h 1.6 km/h 93% 1.52 mm 23 W/m2
18:54 17.3 °C 16.2 °C 1013.4 hPa NW 0.3 km/h 3.2 km/h 93% 1.52 mm 19 W/m2
18:59 17.3 °C 16.2 °C 1013.4 hPa NW 0.3 km/h 3.2 km/h 93% 1.52 mm 19 W/m2
19:04 17.2 °C 16.1 °C 1013.4 hPa NW 0.3 km/h 1.6 km/h 93% 0.51 mm 14 W/m2
19:09 17.3 °C 16.2 °C 1013.4 hPa NW 0.3 km/h 1.6 km/h 93% 0.51 mm 14 W/m2
19:14 17.3 °C 16.2 °C 1013.4 hPa Calm     93% 0.25 mm 12 W/m2
19:19 17.3 °C 16.3 °C 1013.4 hPa Calm     93.6% 0.25 mm 9 W/m2
19:24 17.3 °C 16.3 °C 1013.4 hPa Calm     93.3% 0.25 mm 9 W/m2
19:29 17.4 °C 16.4 °C 1013.4 hPa Calm     94% 0.25 mm 11 W/m2
19:34 17.4 °C 16.4 °C 1013.4 hPa Calm     94% 0.25 mm 9 W/m2
19:39 17.4 °C 16.4 °C 1013.4 hPa Calm     94% 0.25 mm 9 W/m2
19:44 17.4 °C 16.4 °C 1013.4 hPa Calm     94% 0 mm 7 W/m2
19:49 17.4 °C 16.4 °C 1013.4 hPa Calm     94% 0 mm 5 W/m2
19:54 17.4 °C 16.3 °C 1013.4 hPa Calm   1.6 km/h 93.4% 0 mm 0 W/m2
19:59 17.4 °C 16.3 °C 1013.4 hPa Calm     93.4% 0 mm 0 W/m2
20:04 17.4 °C 16.4 °C 1013.4 hPa Calm     94% 0 mm 0 W/m2
20:09 17.4 °C 16.4 °C 1013.4 hPa Calm     94% 0 mm 0 W/m2
20:14 17.4 °C 16.4 °C 1013.4 hPa Calm     94% 0 mm 0 W/m2
20:19 17.4 °C 16.4 °C 1013.4 hPa Calm     94% 0 mm 0 W/m2
20:24 17.4 °C 16.4 °C 1013.4 hPa Calm     94% 0 mm 0 W/m2
20:29 17.5 °C 16.5 °C 1013.4 hPa Calm     94% 0 mm 0 W/m2
20:34 17.6 °C 16.6 °C 1013.4 hPa Calm     94% 0 mm 0 W/m2
20:39 17.5 °C 16.5 °C 1013.4 hPa Calm     94% 0 mm 0 W/m2
20:44 17.5 °C 16.5 °C 1013.4 hPa Calm     94% 0 mm 0 W/m2
20:49 17.4 °C 16.4 °C 1013.4 hPa Calm     94% 0 mm 0 W/m2
20:54 17.4 °C 16.4 °C 1013.4 hPa Calm     94% 0 mm 0 W/m2
20:59 17.4 °C 16.4 °C 1013.4 hPa Calm     94% 0 mm 0 W/m2
21:03 17.4 °C 16.4 °C 1013.4 hPa Calm     94% 0 mm 0 W/m2
21:09 17.4 °C 16.4 °C 1013.4 hPa Calm     94% 0 mm 0 W/m2
21:14 17.4 °C 16.4 °C 1013.4 hPa Calm     94% 0 mm 0 W/m2
21:19 17.4 °C 16.4 °C 1013.4 hPa Calm     94% 0 mm 0 W/m2
21:24 17.4 °C 16.4 °C 1013.4 hPa Calm     94% 0 mm 0 W/m2
21:29 17.4 °C 16.4 °C 1013.4 hPa Calm     94% 0 mm 0 W/m2
21:34 17.4 °C 16.4 °C 1013.4 hPa Calm     94% 0 mm 0 W/m2
21:39 17.4 °C 16.4 °C 1013.1 hPa Calm     94% 0 mm 0 W/m2
21:44 17.5 °C 16.5 °C 1013.1 hPa Calm     94% 0 mm 0 W/m2
21:49 17.6 °C 16.6 °C 1013.1 hPa Calm     94% 0 mm 0 W/m2
21:54 17.5 °C 16.5 °C 1013.1 hPa Calm     94% 0 mm 0 W/m2
21:59 17.4 °C 16.4 °C 1013.1 hPa Calm     94% 0 mm 0 W/m2
22:04 17.4 °C 16.4 °C 1013.1 hPa Calm     94% 0 mm 0 W/m2
22:09 17.4 °C 16.4 °C 1013.1 hPa Calm   1.6 km/h 94% 0 mm 0 W/m2
22:14 17.3 °C 16.3 °C 1013.1 hPa Calm     94% 0 mm 0 W/m2
22:19 17.4 °C 16.4 °C 1012.8 hPa Calm     94% 0 mm 0 W/m2
22:24 17.4 °C 16.4 °C 1012.8 hPa Calm     94% 0 mm 0 W/m2
22:29 17.4 °C 16.4 °C 1012.8 hPa Calm     94% 0 mm 0 W/m2
22:33 17.5 °C 16.5 °C 1012.8 hPa Calm     94% 0 mm 0 W/m2
22:39 17.4 °C 16.4 °C 1012.8 hPa Calm   3.2 km/h 94% 0 mm 0 W/m2
22:44 17.4 °C 16.4 °C 1012.8 hPa Calm     94% 0 mm 0 W/m2
22:49 17.4 °C 16.4 °C 1012.8 hPa Calm     94% 0 mm 0 W/m2
22:54 17.4 °C 16.4 °C 1012.8 hPa Calm     94% 0 mm 0 W/m2
22:59 17.3 °C 16.3 °C 1012.8 hPa Calm     94% 0 mm 0 W/m2
23:04 17.4 °C 16.4 °C 1012.8 hPa Calm     94% 0 mm 0 W/m2
23:09 17.4 °C 16.4 °C 1012.8 hPa Calm     94% 0 mm 0 W/m2
23:14 17.4 °C 16.4 °C 1012.8 hPa Calm     94% 0 mm 0 W/m2
23:19 17.4 °C 16.4 °C 1012.8 hPa Calm     94% 0 mm 0 W/m2
23:24 17.4 °C 16.4 °C 1012.8 hPa Calm     94% 0 mm 0 W/m2
23:29 17.4 °C 16.4 °C 1012.8 hPa Calm     94% 0 mm 0 W/m2
23:34 17.4 °C 16.5 °C 1012.8 hPa Calm     94.4% 0 mm 0 W/m2
23:39 17.5 °C 16.7 °C 1012.8 hPa Calm     95% 0 mm 0 W/m2
23:44 17.5 °C 16.7 °C 1012.8 hPa Calm     95% 0 mm 0 W/m2
23:49 17.4 °C 16.7 °C 1012.8 hPa Calm     95% 0 mm 0 W/m2
23:54 17.4 °C 16.7 °C 1012.8 hPa Calm     95% 0 mm 0 W/m2
23:59 17.5 °C 16.7 °C 1012.8 hPa Calm     95% 0 mm 0 W/m2
Bath Spa Weather
Compliments of Weather Underground - 2 mb